createdAt,value
2022-12-09T00:02:03.008Z,12.40
2022-12-09T00:06:54.837Z,11.23
2022-12-09T00:11:46.746Z,12.70
2022-12-09T00:16:39.883Z,11.90
2022-12-09T00:21:33.752Z,11.70
2022-12-09T00:26:27.572Z,14.17
2022-12-09T00:31:24.483Z,12.97
2022-12-09T00:36:20.229Z,10.60
2022-12-09T00:41:14.229Z,12.10
2022-12-09T00:46:06.961Z,13.33
2022-12-09T00:50:58.906Z,11.23
2022-12-09T00:55:50.731Z,11.77
2022-12-09T01:00:42.526Z,10.70
2022-12-09T01:05:37.077Z,14.37
2022-12-09T01:10:29.007Z,14.73
2022-12-09T01:15:20.668Z,11.50
2022-12-09T01:20:12.619Z,13.27
2022-12-09T01:25:05.291Z,13.17
2022-12-09T01:29:57.157Z,11.83
2022-12-09T01:34:48.900Z,11.97
2022-12-09T01:39:42.126Z,14.67
2022-12-09T01:44:34.505Z,13.87
2022-12-09T01:49:39.164Z,11.37
2022-12-09T01:54:32.558Z,12.33
2022-12-09T02:04:41.068Z,13.77
2022-12-09T02:09:32.899Z,14.07
2022-12-09T02:15:05.552Z,16.70
2022-12-09T02:20:45.307Z,15.03
2022-12-09T02:25:49.874Z,13.33
2022-12-09T02:31:23.029Z,13.20
2022-12-09T02:36:20.404Z,14.20
2022-12-09T02:41:24.480Z,13.60
2022-12-09T02:46:19.956Z,15.57
2022-12-09T02:51:18.178Z,19.87
2022-12-09T02:56:12.888Z,16.77
2022-12-09T03:01:04.798Z,19.40
2022-12-09T03:05:57.026Z,16.13
2022-12-09T03:11:18.077Z,17.50
2022-12-09T03:16:43.529Z,17.27
2022-12-09T03:21:42.226Z,19.50
2022-12-09T03:26:38.934Z,18.77
2022-12-09T03:31:34.542Z,17.27
2022-12-09T03:36:36.168Z,20.63
2022-12-09T03:41:34.171Z,21.23
2022-12-09T03:46:29.767Z,17.37
2022-12-09T03:51:38.802Z,16.27
2022-12-09T03:56:41.228Z,19.83
2022-12-09T04:01:33.790Z,19.63
2022-12-09T04:06:25.996Z,16.57
2022-12-09T04:11:17.783Z,21.17
2022-12-09T04:16:10.053Z,24.20
2022-12-09T04:41:40.749Z,21.10
2022-12-09T04:56:52.701Z,24.50
2022-12-09T05:06:52.728Z,24.93
2022-12-09T05:16:58.199Z,26.07
2022-12-09T06:23:13.089Z,26.07
2022-12-09T06:43:24.145Z,22.83
2022-12-09T07:08:47.862Z,25.07
2022-12-09T09:45:18.661Z,23.40
2022-12-09T09:51:05.831Z,24.33
2022-12-09T12:21:11.075Z,24.57
2022-12-09T14:05:15.737Z,25.93
2022-12-09T22:32:58.277Z,16.60
2022-12-09T22:53:17.079Z,17.63
